Météo Nord-Pas-de-Calais   La météo au plus près de chez vous

Station météorologique

Observations météo à Bernay (27056)

27056003 166 m Dernier relevé à 05:48
15.6°C
Humidité 84 % Vent 8.3 km/h

Journée consultée

Jeudi 3 Septembre 2026

Synthèse de la journée

Périodes de référence en UTC

Température maximale

25.2°C

à 18:18

06h 06h

Température minimale

15.4°C

à 05:00

18h 18h

Rafale maximale

16 km/h

à 05:30

00h 00h

Précipitations

0 mm

Cumul quotidien

06h 06h

Ensoleillement

0h 0 mins

Durée quotidienne

00h 00h

Graphiques de la journée

Heure locale Réduire

Données détaillées

Relevés météo

Pas de 6 minutes Afficher les relevés infra-horaires
Relevés météo détaillés à Bernay pour le Jeudi 3 Septembre 2026
Heure Température °C Point de rosée °C Humidité % Vent moyen (raf.), km/h Précipitations mm Ensoleillement min Rayonnement global W/m²
05:48 15.6 °C 14 °C 90 % 8 km/h (14 km/h) 0 mm0 mm 0 min 0 W/m²
05:42 15.6 °C 13.8 °C 89 % 8 km/h (14 km/h) 0 mm0 mm 0 min 0 W/m²
05:36 15.7 °C 13.9 °C 89 % 9 km/h (16 km/h) 0 mm0 mm 0 min 0 W/m²
05:30 15.7 °C 13.9 °C 89 % 9 km/h (16 km/h) 0 mm0 mm 0 min 0 W/m²
05:24 15.6 °C 13.8 °C 89 % 8 km/h (14 km/h) 0 mm0 mm 0 min 0 W/m²
05:18 15.5 °C 13.5 °C 88 % 7 km/h (13 km/h) 0 mm0 mm 0 min 0 W/m²
05:12 15.5 °C 13.3 °C 87 % 8 km/h (14 km/h) 0 mm0 mm 0 min 0 W/m²
05:06 15.4 °C 13.2 °C 87 % 9 km/h (14 km/h) 0 mm0 mm 0 min 0 W/m²
05:00 15.4 °C 13.1 °C 86 % 9 km/h (14 km/h) 0 mm0 mm 0 min 0 W/m²
04:54 15.6 °C 13.1 °C 85 % 9 km/h (15 km/h) 0 mm0 mm 0 min 0 W/m²
04:48 15.7 °C 13 °C 84 % 8 km/h (15 km/h) 0 mm0 mm 0 min 0 W/m²
04:42 15.8 °C 12.9 °C 83 % 8 km/h (13 km/h) 0 mm0 mm 0 min 0 W/m²
04:36 15.9 °C 13 °C 83 % 7 km/h (11 km/h) 0 mm0 mm 0 min 0 W/m²
04:30 16 °C 13.1 °C 83 % 7 km/h (11 km/h) 0 mm0 mm 0 min 0 W/m²
04:24 16.1 °C 13.2 °C 83 % 6 km/h (10 km/h) 0 mm0 mm 0 min 0 W/m²
04:18 16.1 °C 13.2 °C 83 % 5 km/h (9 km/h) 0 mm0 mm 0 min 0 W/m²
04:12 16.1 °C 13.2 °C 83 % 6 km/h (11 km/h) 0 mm0 mm 0 min 0 W/m²
04:06 16.2 °C 13.1 °C 82 % 8 km/h (13 km/h) 0 mm0 mm 0 min 0 W/m²
04:00 16.3 °C 13.2 °C 82 % 8 km/h (13 km/h) 0 mm0 mm 0 min 0 W/m²
03:54 16.3 °C 13.2 °C 82 % 8 km/h (13 km/h) 0 mm0 mm 0 min 0 W/m²
03:48 16 °C 13.1 °C 83 % 6 km/h (12 km/h) 0 mm0 mm 0 min 0 W/m²
03:42 16 °C 13.1 °C 83 % 6 km/h (10 km/h) 0 mm0 mm 0 min 0 W/m²
03:36 15.9 °C 13.2 °C 84 % 6 km/h (10 km/h) 0 mm0 mm 0 min 0 W/m²
03:30 15.8 °C 13.3 °C 85 % 6 km/h (10 km/h) 0 mm0 mm 0 min 0 W/m²
03:24 15.8 °C 13.5 °C 86 % 6 km/h (10 km/h) 0 mm0 mm 0 min 0 W/m²
03:18 15.7 °C 13.4 °C 86 % 7 km/h (10 km/h) 0 mm0 mm 0 min 0 W/m²
03:12 15.6 °C 13.3 °C 86 % 6 km/h (9 km/h) 0 mm0 mm 0 min 0 W/m²
03:06 15.7 °C 13.2 °C 85 % 6 km/h (9 km/h) 0 mm0 mm 0 min 0 W/m²
03:00 15.8 °C 13.5 °C 86 % 5 km/h (8 km/h) 0 mm0 mm 0 min 0 W/m²
02:54 15.8 °C 13.3 °C 85 % 5 km/h (8 km/h) 0 mm0 mm 0 min 0 W/m²
02:48 16 °C 13.5 °C 85 % 5 km/h (10 km/h) 0 mm0 mm 0 min 0 W/m²
02:42 16.1 °C 13.6 °C 85 % 7 km/h (10 km/h) 0 mm0 mm 0 min 0 W/m²
02:36 16 °C 13.5 °C 85 % 7 km/h (10 km/h) 0 mm0 mm 0 min 0 W/m²
02:30 16.3 °C 13.8 °C 85 % 6 km/h (10 km/h) 0 mm0 mm 0 min 0 W/m²
02:24 16.4 °C 13.9 °C 85 % 6 km/h (9 km/h) 0 mm0 mm 0 min 0 W/m²
02:18 16.5 °C 14 °C 85 % 5 km/h (9 km/h) 0 mm0 mm 0 min 0 W/m²
02:12 16.6 °C 13.9 °C 84 % 6 km/h (10 km/h) 0 mm0 mm 0 min 0 W/m²
02:06 16.8 °C 13.9 °C 83 % 6 km/h (10 km/h) 0 mm0 mm 0 min 0 W/m²
02:00 17 °C 14.1 °C 83 % 6 km/h (11 km/h) 0 mm0 mm 0 min 0 W/m²
01:54 17.1 °C 14.2 °C 83 % 7 km/h (11 km/h) 0 mm0 mm 0 min 0 W/m²
01:48 17.3 °C 14.4 °C 83 % 7 km/h (12 km/h) 0 mm0 mm 0 min 0 W/m²
01:42 17.6 °C 14.3 °C 81 % 8 km/h (15 km/h) 0 mm0 mm 0 min 0 W/m²
01:36 17.7 °C 14.4 °C 81 % 8 km/h (15 km/h) 0 mm0 mm 0 min 0 W/m²
01:30 17.5 °C 13.8 °C 79 % 9 km/h (16 km/h) 0 mm0 mm 0 min 0 W/m²
01:24 17.7 °C 14 °C 79 % 11 km/h (17 km/h) 0 mm0 mm 0 min 0 W/m²
01:18 17.6 °C 14.1 °C 80 % 11 km/h (17 km/h) 0 mm0 mm 0 min 0 W/m²
01:12 17.1 °C 13.6 °C 80 % 9 km/h (15 km/h) 0 mm0 mm 0 min 0 W/m²
01:06 16.6 °C 13.1 °C 80 % 8 km/h (14 km/h) 0 mm0 mm 0 min 0 W/m²
01:00 16.7 °C 13 °C 79 % 9 km/h (14 km/h) 0 mm0 mm 0 min 0 W/m²
00:54 16.2 °C 13.1 °C 82 % 9 km/h (15 km/h) 0 mm0 mm 0 min 0 W/m²
00:48 15.7 °C 13 °C 84 % 6 km/h (15 km/h) 0 mm0 mm 0 min 0 W/m²
00:42 15.8 °C 13.1 °C 84 % 4 km/h (6 km/h) 0 mm0 mm 0 min 0 W/m²
00:36 15.9 °C 13 °C 83 % 4 km/h (6 km/h) 0 mm0 mm 0 min 0 W/m²
00:30 16.1 °C 13.2 °C 83 % 5 km/h (8 km/h) 0 mm0 mm 0 min 0 W/m²
00:24 16.3 °C 13.4 °C 83 % 5 km/h (8 km/h) 0 mm0 mm 0 min 0 W/m²
00:18 16.3 °C 13.4 °C 83 % 5 km/h (7 km/h) 0 mm0 mm 0 min 0 W/m²
00:12 16.2 °C 13.5 °C 84 % 5 km/h (7 km/h) 0 mm0 mm 0 min 0 W/m²
00:06 16.3 °C 13.6 °C 84 % 5 km/h (7 km/h) 0 mm0 mm 0 min 0 W/m²
00:00 16.2 °C 13.5 °C 84 % 4 km/h (7 km/h) 0 mm0 mm 0 min 0 W/m²

Données via Météo-France

Relevés météo à Bernay

Cette page rassemble les observations de la station de Bernay : température, humidité, vent, précipitations et pression atmosphérique. Les graphiques facilitent le suivi de la journée, tandis que le tableau donne accès aux mesures horaires et infra-horaires disponibles.

Pour replacer ces mesures dans leur contexte, consultez la climatologie de Bernay ainsi que ses normales et records. Retrouvez aussi la carte des observations météo en temps réel.